sensor_id;sensor_type;location;lat;lon;timestamp;pressure;altitude;pressure_sealevel;temperature;humidity
57068;BME280;43391;47.448;18.904;2024-01-07T00:00:56;98272.22;;;5.84;100.00
57068;BME280;43391;47.448;18.904;2024-01-07T00:03:21;98274.63;;;5.88;100.00
57068;BME280;43391;47.448;18.904;2024-01-07T00:05:47;98280.59;;;5.88;100.00
57068;BME280;43391;47.448;18.904;2024-01-07T00:08:12;98276.44;;;5.85;100.00
57068;BME280;43391;47.448;18.904;2024-01-07T00:10:37;98273.19;;;5.82;100.00
57068;BME280;43391;47.448;18.904;2024-01-07T00:13:02;98268.38;;;5.76;100.00
57068;BME280;43391;47.448;18.904;2024-01-07T00:15:27;98271.69;;;5.78;100.00
57068;BME280;43391;47.448;18.904;2024-01-07T00:17:53;98269.78;;;5.81;100.00
57068;BME280;43391;47.448;18.904;2024-01-07T00:20:18;98262.75;;;5.85;100.00
57068;BME280;43391;47.448;18.904;2024-01-07T00:22:43;98271.47;;;5.82;100.00
57068;BME280;43391;47.448;18.904;2024-01-07T00:25:08;98271.47;;;5.82;100.00
57068;BME280;43391;47.448;18.904;2024-01-07T00:27:34;98262.91;;;5.82;100.00
57068;BME280;43391;47.448;18.904;2024-01-07T00:29:59;98261.19;;;5.82;100.00
57068;BME280;43391;47.448;18.904;2024-01-07T00:32:24;98268.91;;;5.82;100.00
57068;BME280;43391;47.448;18.904;2024-01-07T00:34:50;98260.59;;;5.77;100.00
57068;BME280;43391;47.448;18.904;2024-01-07T00:37:15;98256.84;;;5.83;100.00
57068;BME280;43391;47.448;18.904;2024-01-07T00:39:41;98261.25;;;5.81;100.00
57068;BME280;43391;47.448;18.904;2024-01-07T00:42:07;98255.56;;;5.74;100.00
57068;BME280;43391;47.448;18.904;2024-01-07T00:44:32;98257.22;;;5.75;100.00
57068;BME280;43391;47.448;18.904;2024-01-07T00:46:57;98261.47;;;5.76;100.00
57068;BME280;43391;47.448;18.904;2024-01-07T00:49:22;98252.94;;;5.76;100.00
57068;BME280;43391;47.448;18.904;2024-01-07T00:51:47;98261.47;;;5.76;100.00
57068;BME280;43391;47.448;18.904;2024-01-07T00:54:13;98265.63;;;5.79;100.00
57068;BME280;43391;47.448;18.904;2024-01-07T00:56:38;98270.19;;;5.74;100.00
57068;BME280;43391;47.448;18.904;2024-01-07T00:59:03;98267.59;;;5.74;100.00
57068;BME280;43391;47.448;18.904;2024-01-07T01:01:28;98265.03;;;5.74;100.00
57068;BME280;43391;47.448;18.904;2024-01-07T01:03:54;98265.03;;;5.74;100.00
57068;BME280;43391;47.448;18.904;2024-01-07T01:06:19;98272.16;;;5.68;100.00
57068;BME280;43391;47.448;18.904;2024-01-07T01:08:44;98273.69;;;5.72;100.00
57068;BME280;43391;47.448;18.904;2024-01-07T01:11:09;98270.38;;;5.70;100.00
57068;BME280;43391;47.448;18.904;2024-01-07T01:13:35;98273.09;;;5.67;100.00
57068;BME280;43391;47.448;18.904;2024-01-07T01:16:00;98272.34;;;5.65;100.00
57068;BME280;43391;47.448;18.904;2024-01-07T01:18:25;98275.84;;;5.64;100.00
57068;BME280;43391;47.448;18.904;2024-01-07T01:20:50;98271.50;;;5.65;100.00
57068;BME280;43391;47.448;18.904;2024-01-07T01:23:16;98275.72;;;5.66;100.00
57068;BME280;43391;47.448;18.904;2024-01-07T01:25:41;98273.41;;;5.61;100.00
57068;BME280;43391;47.448;18.904;2024-01-07T01:28:06;98274.38;;;5.58;100.00
57068;BME280;43391;47.448;18.904;2024-01-07T01:30:31;98265.75;;;5.59;100.00
57068;BME280;43391;47.448;18.904;2024-01-07T01:32:57;98267.41;;;5.61;100.00
57068;BME280;43391;47.448;18.904;2024-01-07T01:35:22;98257.88;;;5.63;100.00
57068;BME280;43391;47.448;18.904;2024-01-07T01:37:47;98268.31;;;5.59;100.00
57068;BME280;43391;47.448;18.904;2024-01-07T01:40:13;98264.94;;;5.59;100.00
57068;BME280;43391;47.448;18.904;2024-01-07T01:42:38;98265.59;;;5.63;100.00
57068;BME280;43391;47.448;18.904;2024-01-07T01:45:03;98265.59;;;5.63;100.00
57068;BME280;43391;47.448;18.904;2024-01-07T01:47:29;98262.25;;;5.61;100.00
57068;BME280;43391;47.448;18.904;2024-01-07T01:49:55;98255.31;;;5.63;100.00
57068;BME280;43391;47.448;18.904;2024-01-07T01:52:20;98265.53;;;5.64;100.00
57068;BME280;43391;47.448;18.904;2024-01-07T01:54:46;98255.38;;;5.61;100.00
57068;BME280;43391;47.448;18.904;2024-01-07T01:57:13;98258.88;;;5.60;100.00
57068;BME280;43391;47.448;18.904;2024-01-07T01:59:40;98263.19;;;5.59;100.00
57068;BME280;43391;47.448;18.904;2024-01-07T02:02:07;98252.13;;;5.57;100.00
57068;BME280;43391;47.448;18.904;2024-01-07T02:04:32;98251.38;;;5.55;100.00
57068;BME280;43391;47.448;18.904;2024-01-07T02:06:58;98253.06;;;5.56;100.00
57068;BME280;43391;47.448;18.904;2024-01-07T02:09:23;98240.78;;;5.62;100.00
57068;BME280;43391;47.448;18.904;2024-01-07T02:12:04;98235.84;;;5.57;100.00
57068;BME280;43391;47.448;18.904;2024-01-07T02:14:29;98239.94;;;5.61;100.00
57068;BME280;43391;47.448;18.904;2024-01-07T02:16:54;98236.38;;;5.64;100.00
57068;BME280;43391;47.448;18.904;2024-01-07T02:19:20;98235.53;;;5.63;100.00
57068;BME280;43391;47.448;18.904;2024-01-07T02:21:45;98226.53;;;5.54;100.00
57068;BME280;43391;47.448;18.904;2024-01-07T02:24:15;98233.19;;;5.58;100.00
57068;BME280;43391;47.448;18.904;2024-01-07T02:26:40;98233.34;;;5.55;100.00
57068;BME280;43391;47.448;18.904;2024-01-07T02:29:05;98229.13;;;5.54;100.00
57068;BME280;43391;47.448;18.904;2024-01-07T02:31:30;98235.31;;;5.50;100.00
57068;BME280;43391;47.448;18.904;2024-01-07T02:33:55;98236.16;;;5.51;100.00
57068;BME280;43391;47.448;18.904;2024-01-07T02:36:21;98234.66;;;5.47;100.00
57068;BME280;43391;47.448;18.904;2024-01-07T02:38:46;98229.38;;;5.50;100.00
57068;BME280;43391;47.448;18.904;2024-01-07T02:41:11;98231.16;;;5.48;100.00
57068;BME280;43391;47.448;18.904;2024-01-07T02:43:36;98226.03;;;5.48;100.00
57068;BME280;43391;47.448;18.904;2024-01-07T02:46:01;98220.97;;;5.46;100.00
57068;BME280;43391;47.448;18.904;2024-01-07T02:48:27;98217.31;;;5.50;100.00
57068;BME280;43391;47.448;18.904;2024-01-07T02:50:52;98215.66;;;5.49;100.00
57068;BME280;43391;47.448;18.904;2024-01-07T02:53:17;98210.56;;;5.48;100.00
57068;BME280;43391;47.448;18.904;2024-01-07T02:55:42;98214.13;;;5.45;100.00
57068;BME280;43391;47.448;18.904;2024-01-07T02:58:07;98219.88;;;5.50;100.00
57068;BME280;43391;47.448;18.904;2024-01-07T03:00:33;98210.34;;;5.52;100.00
57068;BME280;43391;47.448;18.904;2024-01-07T03:02:58;98212.16;;;5.50;100.00
57068;BME280;43391;47.448;18.904;2024-01-07T03:05:23;98211.16;;;5.53;100.00
57068;BME280;43391;47.448;18.904;2024-01-07T03:07:48;98208.84;;;5.48;100.00
57068;BME280;43391;47.448;18.904;2024-01-07T03:10:14;98198.31;;;5.53;100.00
57068;BME280;43391;47.448;18.904;2024-01-07T03:12:39;98202.03;;;5.47;100.00
57068;BME280;43391;47.448;18.904;2024-01-07T03:15:04;98207.19;;;5.47;100.00
57068;BME280;43391;47.448;18.904;2024-01-07T03:17:30;98211.44;;;5.48;100.00
57068;BME280;43391;47.448;18.904;2024-01-07T03:19:56;98201.19;;;5.47;100.00
57068;BME280;43391;47.448;18.904;2024-01-07T03:22:21;98203.38;;;5.54;100.00
57068;BME280;43391;47.448;18.904;2024-01-07T03:25:05;98203.44;;;5.53;100.00
57068;BME280;43391;47.448;18.904;2024-01-07T03:27:30;98201.97;;;5.49;100.00
57068;BME280;43391;47.448;18.904;2024-01-07T03:29:55;98200.28;;;5.48;100.00
57068;BME280;43391;47.448;18.904;2024-01-07T03:32:20;98208.84;;;5.48;100.00
57068;BME280;43391;47.448;18.904;2024-01-07T03:34:46;98204.38;;;5.52;100.00
57068;BME280;43391;47.448;18.904;2024-01-07T03:37:11;98200.81;;;5.54;100.00
57068;BME280;43391;47.448;18.904;2024-01-07T03:39:36;98199.06;;;5.55;100.00
57068;BME280;43391;47.448;18.904;2024-01-07T03:42:01;98200.88;;;5.53;100.00
57068;BME280;43391;47.448;18.904;2024-01-07T03:44:27;98202.38;;;5.57;100.00
57068;BME280;43391;47.448;18.904;2024-01-07T03:46:52;98204.16;;;5.56;100.00
57068;BME280;43391;47.448;18.904;2024-01-07T03:49:17;98200.81;;;5.54;100.00
57068;BME280;43391;47.448;18.904;2024-01-07T03:51:43;98207.72;;;5.54;100.00
57068;BME280;43391;47.448;18.904;2024-01-07T03:54:08;98205.94;;;5.54;100.00
57068;BME280;43391;47.448;18.904;2024-01-07T03:56:33;98208.59;;;5.53;100.00
57068;BME280;43391;47.448;18.904;2024-01-07T03:58:58;98211.94;;;5.55;100.00
57068;BME280;43391;47.448;18.904;2024-01-07T04:01:23;98210.44;;;5.51;100.00
57068;BME280;43391;47.448;18.904;2024-01-07T04:03:49;98216.25;;;5.54;100.00
57068;BME280;43391;47.448;18.904;2024-01-07T04:06:14;98210.28;;;5.54;100.00
57068;BME280;43391;47.448;18.904;2024-01-07T04:08:39;98209.50;;;5.52;100.00
57068;BME280;43391;47.448;18.904;2024-01-07T04:11:04;98210.34;;;5.52;100.00
57068;BME280;43391;47.448;18.904;2024-01-07T04:13:29;98211.16;;;5.53;100.00
57068;BME280;43391;47.448;18.904;2024-01-07T04:15:54;98211.28;;;5.51;100.00
57068;BME280;43391;47.448;18.904;2024-01-07T04:18:20;98214.75;;;5.50;100.00
57068;BME280;43391;47.448;18.904;2024-01-07T04:20:45;98210.44;;;5.51;100.00
57068;BME280;43391;47.448;18.904;2024-01-07T04:23:10;98211.16;;;5.53;100.00
57068;BME280;43391;47.448;18.904;2024-01-07T04:25:35;98218.91;;;5.53;100.00
57068;BME280;43391;47.448;18.904;2024-01-07T04:28:00;98217.31;;;5.50;100.00
57068;BME280;43391;47.448;18.904;2024-01-07T04:30:26;98215.66;;;5.49;100.00
57068;BME280;43391;47.448;18.904;2024-01-07T04:32:51;98218.22;;;5.49;100.00
57068;BME280;43391;47.448;18.904;2024-01-07T04:35:16;98215.06;;;5.44;100.00
57068;BME280;43391;47.448;18.904;2024-01-07T04:37:41;98215.50;;;5.52;100.00
57068;BME280;43391;47.448;18.904;2024-01-07T04:40:07;98216.19;;;5.56;100.00
57068;BME280;43391;47.448;18.904;2024-01-07T04:42:32;98211.88;;;5.56;100.00
57068;BME280;43391;47.448;18.904;2024-01-07T04:44:57;98218.09;;;5.52;100.00
57068;BME280;43391;47.448;18.904;2024-01-07T04:47:23;98213.00;;;5.51;100.00
57068;BME280;43391;47.448;18.904;2024-01-07T04:49:48;98216.44;;;5.51;100.00
57068;BME280;43391;47.448;18.904;2024-01-07T04:52:14;98209.59;;;5.50;100.00
57068;BME280;43391;47.448;18.904;2024-01-07T04:54:39;98211.44;;;5.48;100.00
57068;BME280;43391;47.448;18.904;2024-01-07T04:57:04;98207.84;;;5.51;100.00
57068;BME280;43391;47.448;18.904;2024-01-07T04:59:29;98211.34;;;5.50;100.00
57068;BME280;43391;47.448;18.904;2024-01-07T05:01:54;98207.00;;;5.50;100.00
57068;BME280;43391;47.448;18.904;2024-01-07T05:04:19;98208.59;;;5.53;100.00
57068;BME280;43391;47.448;18.904;2024-01-07T05:06:45;98208.38;;;5.57;100.00
57068;BME280;43391;47.448;18.904;2024-01-07T05:09:10;98214.34;;;5.58;100.00
57068;BME280;43391;47.448;18.904;2024-01-07T05:11:39;98205.88;;;5.56;100.00
57068;BME280;43391;47.448;18.904;2024-01-07T05:14:04;98211.03;;;5.56;100.00
57068;BME280;43391;47.448;18.904;2024-01-07T05:16:29;98206.78;;;5.55;100.00
57068;BME280;43391;47.448;18.904;2024-01-07T05:18:54;98208.78;;;5.50;100.00
57068;BME280;43391;47.448;18.904;2024-01-07T05:21:19;98207.78;;;5.52;100.00
57068;BME280;43391;47.448;18.904;2024-01-07T05:23:45;98207.78;;;5.52;100.00
57068;BME280;43391;47.448;18.904;2024-01-07T05:26:10;98211.34;;;5.50;100.00
57068;BME280;43391;47.448;18.904;2024-01-07T05:28:36;98207.84;;;5.51;100.00
57068;BME280;43391;47.448;18.904;2024-01-07T05:31:01;98211.75;;;5.58;100.00
57068;BME280;43391;47.448;18.904;2024-01-07T05:33:26;98204.88;;;5.58;100.00
57068;BME280;43391;47.448;18.904;2024-01-07T05:35:51;98211.63;;;5.61;100.00
57068;BME280;43391;47.448;18.904;2024-01-07T05:38:17;98211.88;;;5.56;100.00
57068;BME280;43391;47.448;18.904;2024-01-07T05:40:42;98210.19;;;5.55;100.00
57068;BME280;43391;47.448;18.904;2024-01-07T05:43:07;98210.19;;;5.55;100.00
57068;BME280;43391;47.448;18.904;2024-01-07T05:45:32;98217.91;;;5.55;100.00
57068;BME280;43391;47.448;18.904;2024-01-07T05:47:57;98211.28;;;5.51;100.00
57068;BME280;43391;47.448;18.904;2024-01-07T05:50:23;98212.00;;;5.53;100.00
57068;BME280;43391;47.448;18.904;2024-01-07T05:52:48;98210.28;;;5.54;100.00
57068;BME280;43391;47.448;18.904;2024-01-07T05:55:13;98205.13;;;5.54;100.00
57068;BME280;43391;47.448;18.904;2024-01-07T05:57:38;98209.44;;;5.53;100.00
57068;BME280;43391;47.448;18.904;2024-01-07T06:00:04;98211.94;;;5.55;100.00
57068;BME280;43391;47.448;18.904;2024-01-07T06:02:29;98216.84;;;5.59;100.00
57068;BME280;43391;47.448;18.904;2024-01-07T06:04:54;98218.50;;;5.61;100.00
57068;BME280;43391;47.448;18.904;2024-01-07T06:07:19;98212.53;;;5.60;100.00
57068;BME280;43391;47.448;18.904;2024-01-07T06:09:44;98218.28;;;5.65;100.00
57068;BME280;43391;47.448;18.904;2024-01-07T06:12:10;98216.50;;;5.66;100.00
57068;BME280;43391;47.448;18.904;2024-01-07T06:14:35;98219.19;;;5.64;100.00
57068;BME280;43391;47.448;18.904;2024-01-07T06:17:00;98224.09;;;5.69;100.00
57068;BME280;43391;47.448;18.904;2024-01-07T06:19:26;98220.19;;;5.62;100.00
57068;BME280;43391;47.448;18.904;2024-01-07T06:21:51;98217.75;;;5.58;100.00
57068;BME280;43391;47.448;18.904;2024-01-07T06:24:16;98219.41;;;5.59;100.00
57068;BME280;43391;47.448;18.904;2024-01-07T06:26:41;98230.47;;;5.62;100.00
57068;BME280;43391;47.448;18.904;2024-01-07T06:29:07;98228.72;;;5.62;100.00
57068;BME280;43391;47.448;18.904;2024-01-07T06:31:34;98232.94;;;5.63;100.00
57068;BME280;43391;47.448;18.904;2024-01-07T06:33:59;98233.66;;;5.67;100.00
57068;BME280;43391;47.448;18.904;2024-01-07T06:36:25;98228.31;;;5.70;100.00
57068;BME280;43391;47.448;18.904;2024-01-07T06:38:51;98236.03;;;5.70;100.00
57068;BME280;43391;47.448;18.904;2024-01-07T06:41:16;98234.25;;;5.72;100.00
57068;BME280;43391;47.448;18.904;2024-01-07T06:43:41;98232.72;;;5.68;100.00
57068;BME280;43391;47.448;18.904;2024-01-07T06:46:06;98234.63;;;5.64;100.00
57068;BME280;43391;47.448;18.904;2024-01-07T06:48:31;98244.09;;;5.64;100.00
57068;BME280;43391;47.448;18.904;2024-01-07T06:50:57;98252.66;;;5.64;100.00
57068;BME280;43391;47.448;18.904;2024-01-07T06:53:22;98246.66;;;5.64;100.00
57068;BME280;43391;47.448;18.904;2024-01-07T06:55:47;98245.94;;;5.62;100.00
57068;BME280;43391;47.448;18.904;2024-01-07T06:58:13;98243.56;;;5.57;100.00
57068;BME280;43391;47.448;18.904;2024-01-07T07:00:38;98253.78;;;5.58;100.00
57068;BME280;43391;47.448;18.904;2024-01-07T07:03:03;98252.22;;;5.56;100.00
57068;BME280;43391;47.448;18.904;2024-01-07T07:05:30;98249.72;;;5.54;100.00
57068;BME280;43391;47.448;18.904;2024-01-07T07:07:55;98258.28;;;5.55;100.00
57068;BME280;43391;47.448;18.904;2024-01-07T07:10:20;98256.44;;;5.57;100.00
57068;BME280;43391;47.448;18.904;2024-01-07T07:12:45;98261.66;;;5.55;100.00
57068;BME280;43391;47.448;18.904;2024-01-07T07:15:10;98260.19;;;5.51;100.00
57068;BME280;43391;47.448;18.904;2024-01-07T07:17:37;98263.63;;;5.50;100.00
57068;BME280;43391;47.448;18.904;2024-01-07T07:20:03;98261.91;;;5.51;100.00
57068;BME280;43391;47.448;18.904;2024-01-07T07:22:28;98258.66;;;5.47;100.00
57068;BME280;43391;47.448;18.904;2024-01-07T07:24:53;98263.63;;;5.50;100.00
57068;BME280;43391;47.448;18.904;2024-01-07T07:27:19;98257.75;;;5.48;100.00
57068;BME280;43391;47.448;18.904;2024-01-07T07:29:44;98266.16;;;5.52;100.00
57068;BME280;43391;47.448;18.904;2024-01-07T07:32:09;98267.72;;;5.54;100.00
57068;BME280;43391;47.448;18.904;2024-01-07T07:34:34;98260.84;;;5.55;100.00
57068;BME280;43391;47.448;18.904;2024-01-07T07:37:00;98261.75;;;5.54;100.00
57068;BME280;43391;47.448;18.904;2024-01-07T07:39:25;98266.81;;;5.55;100.00
57068;BME280;43391;47.448;18.904;2024-01-07T07:41:50;98266.38;;;5.47;100.00
57068;BME280;43391;47.448;18.904;2024-01-07T07:44:16;98274.31;;;5.42;100.00
57068;BME280;43391;47.448;18.904;2024-01-07T07:46:41;98270.03;;;5.43;100.00
57068;BME280;43391;47.448;18.904;2024-01-07T07:49:06;98278.09;;;5.53;100.00
57068;BME280;43391;47.448;18.904;2024-01-07T07:51:31;98282.25;;;5.55;100.00
57068;BME280;43391;47.448;18.904;2024-01-07T07:53:56;98287.78;;;5.48;100.00
57068;BME280;43391;47.448;18.904;2024-01-07T07:56:22;98274.94;;;5.48;100.00
57068;BME280;43391;47.448;18.904;2024-01-07T07:58:47;98285.81;;;5.53;100.00
57068;BME280;43391;47.448;18.904;2024-01-07T08:01:13;98286.81;;;5.50;100.00
57068;BME280;43391;47.448;18.904;2024-01-07T08:03:38;98286.81;;;5.50;100.00
57068;BME280;43391;47.448;18.904;2024-01-07T08:06:04;98288.50;;;5.51;100.00
57068;BME280;43391;47.448;18.904;2024-01-07T08:08:29;98287.66;;;5.51;100.00
57068;BME280;43391;47.448;18.904;2024-01-07T08:10:54;98282.66;;;5.48;100.00
57068;BME280;43391;47.448;18.904;2024-01-07T08:13:20;98285.41;;;5.44;100.00
57068;BME280;43391;47.448;18.904;2024-01-07T08:15:45;98295.38;;;5.51;100.00
57068;BME280;43391;47.448;18.904;2024-01-07T08:18:10;98293.72;;;5.50;100.00
57068;BME280;43391;47.448;18.904;2024-01-07T08:20:35;98297.88;;;5.52;100.00
57068;BME280;43391;47.448;18.904;2024-01-07T08:23:00;98296.97;;;5.53;100.00
57068;BME280;43391;47.448;18.904;2024-01-07T08:25:26;98302.78;;;5.57;100.00
57068;BME280;43391;47.448;18.904;2024-01-07T08:27:51;98306.13;;;5.59;100.00
57068;BME280;43391;47.448;18.904;2024-01-07T08:30:16;98310.34;;;5.60;100.00
57068;BME280;43391;47.448;18.904;2024-01-07T08:32:41;98308.84;;;5.56;100.00
57068;BME280;43391;47.448;18.904;2024-01-07T08:35:07;98312.25;;;5.56;100.00
57068;BME280;43391;47.448;18.904;2024-01-07T08:37:32;98314.06;;;5.54;100.00
57068;BME280;43391;47.448;18.904;2024-01-07T08:39:58;98308.00;;;5.55;100.00
57068;BME280;43391;47.448;18.904;2024-01-07T08:42:23;98318.09;;;5.60;100.00
57068;BME280;43391;47.448;18.904;2024-01-07T08:44:48;98317.16;;;5.61;100.00
57068;BME280;43391;47.448;18.904;2024-01-07T08:47:13;98316.25;;;5.62;100.00
57068;BME280;43391;47.448;18.904;2024-01-07T08:49:39;98318.81;;;5.62;100.00
57068;BME280;43391;47.448;18.904;2024-01-07T08:52:05;98318.16;;;5.58;100.00
57068;BME280;43391;47.448;18.904;2024-01-07T08:54:30;98318.91;;;5.61;100.00
57068;BME280;43391;47.448;18.904;2024-01-07T08:56:55;98322.00;;;5.67;100.00
57068;BME280;43391;47.448;18.904;2024-01-07T08:59:20;98326.41;;;5.65;100.00
57068;BME280;43391;47.448;18.904;2024-01-07T09:01:45;98329.78;;;5.66;100.00
57068;BME280;43391;47.448;18.904;2024-01-07T09:04:11;98331.69;;;5.62;100.00
57068;BME280;43391;47.448;18.904;2024-01-07T09:06:36;98332.53;;;5.63;100.00
57068;BME280;43391;47.448;18.904;2024-01-07T09:09:01;98331.16;;;5.55;100.00
57068;BME280;43391;47.448;18.904;2024-01-07T09:11:26;98333.53;;;5.60;100.00
57068;BME280;43391;47.448;18.904;2024-01-07T09:13:51;98333.34;;;5.63;100.00
57068;BME280;43391;47.448;18.904;2024-01-07T09:16:17;98334.13;;;5.65;100.00
57068;BME280;43391;47.448;18.904;2024-01-07T09:18:42;98333.34;;;5.63;100.00
57068;BME280;43391;47.448;18.904;2024-01-07T09:21:10;98333.28;;;5.65;100.00
57068;BME280;43391;47.448;18.904;2024-01-07T09:23:36;98331.88;;;5.59;100.00
57068;BME280;43391;47.448;18.904;2024-01-07T09:26:02;98335.94;;;5.45;100.00
57068;BME280;43391;47.448;18.904;2024-01-07T09:28:27;98341.41;;;5.39;100.00
57068;BME280;43391;47.448;18.904;2024-01-07T09:30:52;98346.44;;;5.05;100.00
57068;BME280;43391;47.448;18.904;2024-01-07T09:33:17;98346.34;;;4.89;100.00
57068;BME280;43391;47.448;18.904;2024-01-07T09:35:43;98349.38;;;4.80;100.00
57068;BME280;43391;47.448;18.904;2024-01-07T09:38:08;98341.84;;;4.75;100.00
57068;BME280;43391;47.448;18.904;2024-01-07T09:40:34;98341.50;;;4.64;100.00
57068;BME280;43391;47.448;18.904;2024-01-07T09:42:59;98340.75;;;4.62;100.00
57068;BME280;43391;47.448;18.904;2024-01-07T09:45:24;98342.91;;;4.52;100.00
57068;BME280;43391;47.448;18.904;2024-01-07T09:47:50;98341.41;;;4.48;100.00
57068;BME280;43391;47.448;18.904;2024-01-07T09:50:15;98340.84;;;4.41;100.00
57068;BME280;43391;47.448;18.904;2024-01-07T09:52:42;98337.84;;;4.31;100.00
57068;BME280;43391;47.448;18.904;2024-01-07T09:55:08;98332.00;;;4.28;100.00
57068;BME280;43391;47.448;18.904;2024-01-07T09:57:34;98326.25;;;4.22;100.00
57068;BME280;43391;47.448;18.904;2024-01-07T09:59:59;98332.34;;;4.20;100.00
57068;BME280;43391;47.448;18.904;2024-01-07T10:02:25;98332.69;;;4.12;100.00
57068;BME280;43391;47.448;18.904;2024-01-07T10:04:50;98321.66;;;4.10;100.00
57068;BME280;43391;47.448;18.904;2024-01-07T10:07:15;98329.38;;;4.10;100.00
57068;BME280;43391;47.448;18.904;2024-01-07T10:09:42;98321.09;;;4.03;100.00
57068;BME280;43391;47.448;18.904;2024-01-07T10:12:08;98322.34;;;3.94;100.00
57068;BME280;43391;47.448;18.904;2024-01-07T10:14:33;98320.69;;;3.93;100.00
57068;BME280;43391;47.448;18.904;2024-01-07T10:16:58;98316.34;;;3.94;100.00
57068;BME280;43391;47.448;18.904;2024-01-07T10:19:24;98324.22;;;3.91;100.00
57068;BME280;43391;47.448;18.904;2024-01-07T10:22:02;98320.78;;;3.90;100.00
57068;BME280;43391;47.448;18.904;2024-01-07T10:24:37;98330.31;;;3.88;100.00
57068;BME280;43391;47.448;18.904;2024-01-07T10:27:05;98319.31;;;3.84;100.00
57068;BME280;43391;47.448;18.904;2024-01-07T10:29:31;98321.81;;;3.86;100.00
57068;BME280;43391;47.448;18.904;2024-01-07T10:31:59;98316.00;;;3.82;100.00
57068;BME280;43391;47.448;18.904;2024-01-07T10:34:29;98311.06;;;3.78;100.00
57068;BME280;43391;47.448;18.904;2024-01-07T10:36:54;98318.56;;;3.82;100.00
57068;BME280;43391;47.448;18.904;2024-01-07T10:39:21;98313.63;;;3.78;100.00
57068;BME280;43391;47.448;18.904;2024-01-07T10:41:46;98317.03;;;3.78;100.00
57068;BME280;43391;47.448;18.904;2024-01-07T10:44:12;98311.13;;;3.76;100.00
57068;BME280;43391;47.448;18.904;2024-01-07T10:46:38;98310.28;;;3.76;100.00
57068;BME280;43391;47.448;18.904;2024-01-07T10:49:04;98308.56;;;3.76;100.00
57068;BME280;43391;47.448;18.904;2024-01-07T10:51:32;98311.34;;;3.71;100.00
57068;BME280;43391;47.448;18.904;2024-01-07T10:53:58;98315.75;;;3.68;100.00
57068;BME280;43391;47.448;18.904;2024-01-07T10:56:24;98308.94;;;3.67;100.00
57068;BME280;43391;47.448;18.904;2024-01-07T10:58:51;98304.66;;;3.67;100.00
57068;BME280;43391;47.448;18.904;2024-01-07T11:01:17;98307.28;;;3.66;100.00
57068;BME280;43391;47.448;18.904;2024-01-07T11:06:11;98299.72;;;3.63;100.00
57068;BME280;43391;47.448;18.904;2024-01-07T11:13:59;98298.94;;;3.61;100.00
57068;BME280;43391;47.448;18.904;2024-01-07T11:19:04;98288.44;;;3.46;100.00
57068;BME280;43391;47.448;18.904;2024-01-07T11:21:29;98291.63;;;3.51;100.00
57068;BME280;43391;47.448;18.904;2024-01-07T11:23:54;98293.56;;;3.46;100.00
57068;BME280;43391;47.448;18.904;2024-01-07T11:26:20;98289.34;;;3.45;100.00
57068;BME280;43391;47.448;18.904;2024-01-07T11:28:49;98292.16;;;3.39;100.00
57068;BME280;43391;47.448;18.904;2024-01-07T11:31:15;98292.22;;;3.37;100.00
57068;BME280;43391;47.448;18.904;2024-01-07T11:33:45;98292.28;;;3.36;100.00
57068;BME280;43391;47.448;18.904;2024-01-07T11:36:10;98289.66;;;3.37;100.00
57068;BME280;43391;47.448;18.904;2024-01-07T11:38:36;98293.00;;;3.39;100.00
57068;BME280;43391;47.448;18.904;2024-01-07T11:41:05;98290.56;;;3.36;100.00
57068;BME280;43391;47.448;18.904;2024-01-07T11:43:30;98297.31;;;3.39;100.00
57068;BME280;43391;47.448;18.904;2024-01-07T11:45:55;98299.16;;;3.35;100.00
57068;BME280;43391;47.448;18.904;2024-01-07T11:48:21;98295.69;;;3.36;100.00
57068;BME280;43391;47.448;18.904;2024-01-07T11:50:46;98293.41;;;3.30;100.00
57068;BME280;43391;47.448;18.904;2024-01-07T11:53:11;98299.28;;;3.32;100.00
57068;BME280;43391;47.448;18.904;2024-01-07T11:55:37;98309.84;;;3.24;100.00
57068;BME280;43391;47.448;18.904;2024-01-07T11:58:02;98301.56;;;3.17;100.00
57068;BME280;43391;47.448;18.904;2024-01-07T12:00:30;98303.38;;;3.15;100.00
57068;BME280;43391;47.448;18.904;2024-01-07T12:02:55;98303.38;;;3.15;100.00
57068;BME280;43391;47.448;18.904;2024-01-07T12:05:20;98308.88;;;3.06;100.00
57068;BME280;43391;47.448;18.904;2024-01-07T12:07:46;98314.25;;;3.00;100.00
57068;BME280;43391;47.448;18.904;2024-01-07T12:10:11;98308.38;;;2.98;100.00
57068;BME280;43391;47.448;18.904;2024-01-07T12:12:37;98310.97;;;2.96;100.00
57068;BME280;43391;47.448;18.904;2024-01-07T12:15:03;98311.22;;;2.90;100.00
57068;BME280;43391;47.448;18.904;2024-01-07T12:17:29;98314.66;;;2.89;100.00
57068;BME280;43391;47.448;18.904;2024-01-07T12:19:56;98317.31;;;2.87;100.00
57068;BME280;43391;47.448;18.904;2024-01-07T12:22:21;98319.13;;;2.84;100.00
57068;BME280;43391;47.448;18.904;2024-01-07T12:24:46;98326.06;;;2.82;100.00
57068;BME280;43391;47.448;18.904;2024-01-07T12:27:12;98321.72;;;2.84;100.00
57068;BME280;43391;47.448;18.904;2024-01-07T12:29:39;98331.19;;;2.82;100.00
57068;BME280;43391;47.448;18.904;2024-01-07T12:32:05;98328.81;;;2.77;100.00
57068;BME280;43391;47.448;18.904;2024-01-07T12:34:30;98321.19;;;2.75;100.00
57068;BME280;43391;47.448;18.904;2024-01-07T12:36:56;98328.28;;;2.69;100.00
57068;BME280;43391;47.448;18.904;2024-01-07T12:39:21;98329.22;;;2.66;100.00
57068;BME280;43391;47.448;18.904;2024-01-07T12:41:46;98329.31;;;2.63;100.00
57068;BME280;43391;47.448;18.904;2024-01-07T12:44:12;98321.84;;;2.58;100.00
57068;BME280;43391;47.448;18.904;2024-01-07T12:46:37;98328.66;;;2.58;100.00
57068;BME280;43391;47.448;18.904;2024-01-07T12:49:02;98326.25;;;2.55;100.00
57068;BME280;43391;47.448;18.904;2024-01-07T12:51:28;98333.03;;;2.56;100.00